Time;durP1;ratioP1;P1;durP2;ratioP2;P2;SDS_P1;SDS_P2;PMS_P1;PMS_P2;Temp;Humidity;BMP_temperature;BMP_pressure;BME280_temperature;BME280_humidity;BME280_pressure;Samples;Min_cycle;Max_cycle;Signal;HPM_P1;HPM_P2
2022/10/05 00:02:22;;;;;;;8.45;4.20;;;;;;;9.21;72.21;101000.00;5110829;28;20065;-28
2022/10/05 00:04:52;;;;;;;8.43;4.13;;;;;;;8.64;74.28;101003.31;5110768;28;20028;-30
2022/10/05 00:07:20;;;;;;;5.88;3.78;;;;;;;8.35;74.94;100999.59;5110884;28;20112;-29
2022/10/05 00:09:58;;;;;;;6.13;3.38;;;;;;;8.32;74.65;101005.28;5110466;28;20023;-27
2022/10/05 00:12:24;;;;;;;;;;;;;;;8.70;73.79;101009.75;5092634;28;20035;-29
2022/10/05 00:14:54;;;;;;;6.22;4.03;;;;;;;9.05;72.29;101006.34;5110454;28;19912;-28
2022/10/05 00:17:22;;;;;;;7.43;3.95;;;;;;;8.73;73.36;100986.28;5110398;28;20023;-27
2022/10/05 00:19:52;;;;;;;8.40;4.25;;;;;;;8.95;72.39;100989.00;5091026;28;20066;-29
2022/10/05 00:22:32;;;;;;;8.00;4.20;;;;;;;8.62;72.89;100984.06;5110228;28;20035;-28
2022/10/05 00:25:00;;;;;;;7.65;3.88;;;;;;;8.65;72.79;100981.06;5110105;28;20028;-26
2022/10/05 00:27:31;;;;;;;7.20;3.50;;;;;;;8.38;73.94;100991.28;5110130;28;20031;-30
2022/10/05 00:30:00;;;;;;;5.53;3.50;;;;;;;8.19;74.32;100997.09;5092325;28;21021;-27
2022/10/05 00:32:26;;;;;;;7.78;3.42;;;;;;;7.95;75.28;100982.22;5110055;28;20028;-28
2022/10/05 00:34:51;;;;;;;7.50;3.45;;;;;;;8.04;75.66;101000.53;5110536;28;20100;-27
2022/10/05 00:37:16;;;;;;;5.32;3.38;;;;;;;7.81;75.05;100966.06;5109851;28;20881;-26
2022/10/05 00:39:42;;;;;;;9.65;3.95;;;;;;;8.29;73.86;100999.50;5109672;28;20116;-27
2022/10/05 00:42:16;;;;;;;7.40;3.70;;;;;;;8.08;74.88;101013.50;5091481;28;20027;-27
2022/10/05 00:44:51;;;;;;;6.03;3.15;;;;;;;7.91;75.23;101013.63;5109874;28;20457;-27
2022/10/05 00:47:28;;;;;;;7.07;3.65;;;;;;;7.85;75.89;101003.72;5109854;28;20063;-27
2022/10/05 00:50:22;;;;;;;9.15;3.75;;;;;;;7.96;76.40;101005.94;5108155;28;20411;-28
2022/10/05 00:52:48;;;;;;;5.68;3.75;;;;;;;8.05;76.39;101004.88;5091583;28;20576;-26
2022/10/05 00:55:28;;;;;;;8.15;3.58;;;;;;;8.45;75.03;100992.22;5109717;28;20055;-28
2022/10/05 00:58:14;;;;;;;7.38;4.10;;;;;;;8.50;75.08;101001.47;5109276;28;20114;-30
2022/10/05 01:01:06;;;;;;;8.15;4.00;;;;;;;8.55;74.04;100993.81;5109539;28;20076;-29
2022/10/05 01:03:58;;;;;;;5.53;3.50;;;;;;;8.33;73.88;100975.03;5107974;28;20403;-27
2022/10/05 01:06:51;;;;;;;6.28;3.80;;;;;;;8.63;74.24;101013.13;5109424;28;20173;-28
2022/10/05 01:09:32;;;;;;;6.05;3.33;;;;;;;8.44;74.10;101017.16;5109295;28;20047;-27
2022/10/05 01:12:07;;;;;;;5.78;3.80;;;;;;;8.49;74.92;101007.81;5109411;28;20039;-26
2022/10/05 01:14:55;;;;;;;7.50;3.80;;;;;;;8.33;75.52;101017.56;5109220;28;20028;-27
2022/10/05 01:17:26;;;;;;;7.60;3.83;;;;;;;8.00;77.17;101019.69;5107800;28;20032;-28
2022/10/05 01:20:10;;;;;;;8.45;3.60;;;;;;;8.07;76.68;101006.50;5087213;28;20036;-29
2022/10/05 01:22:55;;;;;;;8.95;3.70;;;;;;;8.12;76.55;100999.66;5088559;28;20116;-27
2022/10/05 01:26:04;;;;;;;7.63;3.92;;;;;;;8.36;75.53;101019.88;5088595;28;20028;-26
2022/10/05 01:28:59;;;;;;;6.93;3.90;;;;;;;8.30;76.13;101022.44;5088793;28;20530;-27
2022/10/05 01:31:24;;;;;;;9.13;3.97;;;;;;;8.09;77.57;101023.09;5065685;28;20036;-30
2022/10/05 01:34:07;;;;;;;7.72;3.70;;;;;;;8.10;77.16;101011.47;5088117;28;20851;-26
2022/10/05 01:37:23;;;;;;;10.25;4.30;;;;;;;8.58;75.08;100996.06;5088356;28;20132;-27
2022/10/05 01:40:04;;;;;;;7.00;3.42;;;;;;;8.87;73.45;101019.22;4998609;28;20121;-30
2022/10/05 01:42:48;;;;;;;6.47;3.50;;;;;;;8.87;73.65;101015.69;5069906;28;20035;-27
2022/10/05 01:45:33;;;;;;;6.07;3.75;;;;;;;8.68;73.85;101004.59;5088354;28;20507;-26
2022/10/05 01:48:14;;;;;;;6.03;3.60;;;;;;;8.65;74.03;101029.75;5088261;28;20139;-26
2022/10/05 01:50:42;;;;;;;8.98;3.55;;;;;;;8.61;73.81;101024.97;5088235;28;20032;-28
2022/10/05 01:53:27;;;;;;;6.50;3.58;;;;;;;8.74;73.53;101029.66;5086543;28;20618;-27
2022/10/05 01:55:52;;;;;;;6.88;3.45;;;;;;;8.91;72.63;101027.63;5086405;28;20120;-28
2022/10/05 01:58:39;;;;;;;6.65;3.50;;;;;;;9.02;71.69;101035.16;5087672;28;20114;-31
2022/10/05 02:01:22;;;;;;;6.82;3.40;;;;;;;8.62;72.70;101014.16;5086614;28;20031;-25
2022/10/05 02:04:00;;;;;;;8.00;3.55;;;;;;;8.85;72.16;101024.72;5088148;28;20113;-29
2022/10/05 02:06:29;;;;;;;8.85;3.42;;;;;;;9.07;71.80;101038.06;5087641;28;20024;-28
2022/10/05 02:09:15;;;;;;;5.97;3.30;;;;;;;8.84;71.95;101044.31;5087772;28;20066;-30
2022/10/05 02:11:48;;;;;;;4.80;2.97;;;;;;;8.91;71.82;101040.94;5087016;28;20452;-28
2022/10/05 02:14:20;;;;;;;6.20;3.10;;;;;;;8.91;71.66;101046.25;5087635;28;20552;-29
2022/10/05 02:16:47;;;;;;;6.30;3.20;;;;;;;8.63;72.37;101054.88;5087224;28;20070;-29
2022/10/05 02:19:38;;;;;;;6.25;3.20;;;;;;;8.52;73.51;101061.47;5087309;28;20050;-29
2022/10/05 02:22:07;;;;;;;5.28;3.10;;;;;;;8.35;74.28;101059.91;5086945;28;20399;-28
2022/10/05 02:24:41;;;;;;;5.40;3.20;;;;;;;8.44;74.48;101065.00;5087365;28;20028;-26
2022/10/05 02:27:09;;;;;;;5.55;3.15;;;;;;;8.32;73.79;101068.25;5087320;28;20032;-27
2022/10/05 02:29:38;;;;;;;8.18;3.38;;;;;;;8.51;73.56;101069.59;5086897;28;20468;-28
2022/10/05 02:32:12;;;;;;;25.33;8.60;;;;;;;8.29;72.73;101042.03;5087360;28;20032;-28
2022/10/05 02:34:42;;;;;;;14.10;6.05;;;;;;;8.36;73.37;101042.97;5068785;28;20160;-27
2022/10/05 02:37:29;;;;;;;16.27;7.07;;;;;;;8.47;73.25;101065.66;5065457;28;20131;-28
2022/10/05 02:40:15;;;;;;;13.68;6.15;;;;;;;7.61;75.78;101034.72;5066730;28;20095;-26
2022/10/05 02:42:46;;;;;;;9.60;4.32;;;;;;;7.68;76.52;101071.19;5065262;28;20111;-28
2022/10/05 02:45:58;;;;;;;12.50;4.95;;;;;;;7.81;74.99;101040.41;5066667;28;20035;-26
2022/10/05 02:48:29;;;;;;;7.93;4.30;;;;;;;7.65;75.73;101073.19;5004159;28;20034;-27
2022/10/05 02:51:21;;;;;;;6.35;4.38;;;;;;;7.99;74.00;101074.66;5004157;28;20029;-28
2022/10/05 02:54:14;;;;;;;6.70;4.10;;;;;;;7.72;74.61;101078.63;5046204;28;20428;-31
2022/10/05 02:57:01;;;;;;;7.72;3.67;;;;;;;7.44;74.90;101070.34;5066533;28;20547;-28
2022/10/05 02:59:48;;;;;;;10.63;3.90;;;;;;;7.24;74.92;101093.81;5066987;28;20539;-27
2022/10/05 03:02:46;;;;;;;8.38;7.30;;;;;;;7.27;73.82;101085.50;5066707;28;20032;-29
2022/10/05 03:05:11;;;;;;;6.22;3.95;;;;;;;6.97;76.58;101079.97;5031965;28;20424;-28
2022/10/05 03:08:01;;;;;;;5.65;3.83;;;;;;;6.82;78.74;101086.94;5081947;28;20098;-25
2022/10/05 03:10:55;;;;;;;8.77;4.65;;;;;;;6.76;80.74;101088.47;5066642;28;20041;-29
2022/10/05 03:13:39;;;;;;;6.95;3.83;;;;;;;6.70;81.26;101101.56;5066492;28;20033;-29
2022/10/05 03:16:19;;;;;;;6.28;3.88;;;;;;;6.65;81.94;101091.47;5066571;28;20052;-31
2022/10/05 03:19:00;;;;;;;8.13;4.43;;;;;;;6.88;81.15;101099.53;5066688;28;20037;-28
2022/10/05 03:21:49;;;;;;;6.68;3.78;;;;;;;6.84;80.11;101096.41;5081952;28;20029;-30
2022/10/05 03:24:23;;;;;;;5.30;3.65;;;;;;;6.81;80.04;101096.75;5066554;28;20090;-27
2022/10/05 03:26:58;;;;;;;7.85;3.97;;;;;;;6.94;79.82;101100.69;5066365;28;20036;-28
2022/10/05 03:29:46;;;;;;;6.90;3.75;;;;;;;6.55;80.27;101102.22;5066505;28;20051;-27
2022/10/05 03:32:29;;;;;;;6.18;3.78;;;;;;;6.49;81.09;101107.38;5065043;28;20028;-29
2022/10/05 03:35:02;;;;;;;5.00;3.30;;;;;;;6.47;81.04;101094.28;5066447;28;20037;-27
2022/10/05 03:37:38;;;;;;;6.00;3.65;;;;;;;6.49;81.48;101102.09;5064669;28;20103;-28
2022/10/05 03:40:19;;;;;;;6.55;3.38;;;;;;;6.58;80.51;101087.84;5066823;28;20028;-29
2022/10/05 03:42:53;;;;;;;9.05;3.75;;;;;;;7.38;77.88;101118.81;5066380;28;20032;-27
2022/10/05 03:45:26;;;;;;;7.22;3.92;;;;;;;7.57;76.51;101125.50;5066293;28;20016;-27
2022/10/05 03:48:07;;;;;;;9.48;4.68;;;;;;;7.38;77.85;101116.16;5064532;28;20057;-28
2022/10/05 03:50:57;;;;;;;6.50;4.05;;;;;;;7.61;77.49;101135.59;5066274;28;20020;-28
2022/10/05 03:53:28;;;;;;;6.97;3.92;;;;;;;7.51;76.88;101115.59;5066084;28;20094;-29
2022/10/05 03:55:58;;;;;;;9.88;4.25;;;;;;;7.76;76.53;101137.53;5068878;28;20017;-27
2022/10/05 03:58:34;;;;;;;9.05;4.60;;;;;;;7.65;76.21;101128.94;5069952;28;20039;-26
2022/10/05 04:01:09;;;;;;;6.18;4.13;;;;;;;7.49;77.41;101136.97;5069794;28;20415;-27
2022/10/05 04:03:37;;;;;;;6.95;3.70;;;;;;;7.14;78.43;101112.56;5069485;28;20408;-27
2022/10/05 04:06:12;;;;;;;;;;;;;;;7.44;77.02;101136.69;5070348;28;20024;-26
2022/10/05 04:08:55;;;;;;;8.48;4.40;;;;;;;7.37;77.66;101135.72;5069669;28;19916;-28
2022/10/05 04:11:35;;;;;;;6.93;4.22;;;;;;;7.27;76.89;101113.84;5085021;28;20035;-28
2022/10/05 04:14:16;;;;;;;10.35;4.13;;;;;;;7.21;77.11;101116.22;5069289;28;20032;-28
2022/10/05 04:16:45;;;;;;;7.57;3.67;;;;;;;7.23;76.92;101131.94;5069709;28;20063;-29
2022/10/05 04:19:43;;;;;;;6.03;3.38;;;;;;;7.33;74.69;101131.75;5069343;28;20040;-28
2022/10/05 04:22:14;;;;;;;6.82;3.65;;;;;;;7.20;74.72;101151.69;5064766;28;20041;-29
2022/10/05 04:24:48;;;;;;;6.75;3.10;;;;;;;7.31;74.94;101154.97;5069120;28;20030;-26
2022/10/05 04:27:18;;;;;;;4.25;2.85;;;;;;;7.17;75.34;101165.28;5084911;28;20028;-29
2022/10/05 04:29:54;;;;;;;7.68;3.03;;;;;;;7.32;75.48;101168.06;5069018;28;20111;-27
2022/10/05 04:32:36;;;;;;;5.32;2.80;;;;;;;6.98;77.30;101161.16;5069240;28;20119;-30
2022/10/05 04:35:28;;;;;;;5.53;3.35;;;;;;;7.23;76.71;101164.63;5069125;28;20431;-29
2022/10/05 04:37:57;;;;;;;5.88;2.75;;;;;;;7.20;76.79;101172.91;5087524;28;20067;-26
2022/10/05 04:41:02;;;;;;;4.90;2.75;;;;;;;7.36;76.42;101173.88;5089143;28;20028;-27
2022/10/05 04:44:05;;;;;;;7.32;3.33;;;;;;;7.23;78.06;101180.53;5087078;28;20078;-29
2022/10/05 04:46:50;;;;;;;7.15;3.45;;;;;;;7.07;79.06;101185.03;5087624;28;20564;-31
2022/10/05 04:49:38;;;;;;;8.43;3.95;;;;;;;6.90;78.80;101189.53;5087704;28;20107;-26
2022/10/05 04:52:09;;;;;;;;;;;;;;;6.90;79.75;101189.53;5054788;28;20034;-27
2022/10/05 04:54:59;;;;;;;5.80;3.33;;;;;;;6.82;79.80;101193.00;5089003;28;19912;-26
2022/10/05 04:57:47;;;;;;;7.93;3.38;;;;;;;6.49;79.37;101190.34;5088894;28;20055;-26
2022/10/05 05:00:21;;;;;;;18.45;3.55;;;;;;;6.70;79.08;101205.78;5087601;28;20405;-25
2022/10/05 05:03:35;;;;;;;8.15;3.60;;;;;;;6.96;78.39;101202.13;5088671;28;20036;-29
2022/10/05 05:06:08;;;;;;;13.73;4.13;;;;;;;7.09;78.31;101210.41;5015242;28;20201;-29
2022/10/05 05:08:39;;;;;;;5.43;3.30;;;;;;;7.50;75.96;101212.13;5088885;28;20027;-33
2022/10/05 05:11:10;;;;;;;7.60;3.45;;;;;;;7.69;75.13;101210.94;5088849;28;20027;-28
2022/10/05 05:13:54;;;;;;;8.25;3.50;;;;;;;7.59;75.54;101217.25;5088404;28;20032;-29
2022/10/05 05:17:01;;;;;;;7.10;3.60;;;;;;;7.61;75.90;101215.25;5088427;28;20024;-28
2022/10/05 05:19:33;;;;;;;7.95;4.47;;;;;;;7.81;75.43;101201.59;5025549;28;20041;-30
2022/10/05 05:21:59;;;;;;;12.02;4.93;;;;;;;8.02;75.67;101223.03;5080500;28;20579;-28
2022/10/05 05:24:58;;;;;;;9.23;5.13;;;;;;;8.04;76.39;101218.38;5086912;28;20036;-27
2022/10/05 05:27:32;;;;;;;13.85;6.97;;;;;;;7.86;76.74;101217.81;5088436;28;20128;-28
2022/10/05 05:30:15;;;;;;;7.13;4.15;;;;;;;8.08;75.58;101226.03;5088182;28;20032;-31
2022/10/05 05:32:51;;;;;;;7.65;3.50;;;;;;;7.77;77.61;101225.00;5088151;28;20028;-28
2022/10/05 05:35:56;;;;;;;11.32;4.72;;;;;;;7.58;79.17;101233.34;5087920;28;20697;-26
2022/10/05 05:38:34;;;;;;;20.10;9.50;;;;;;;7.89;78.00;101217.47;5088041;28;20565;-26
2022/10/05 05:41:41;;;;;;;60.70;30.90;;;;;;;8.31;77.28;101237.50;5088060;28;20047;-29
2022/10/05 05:44:33;;;;;;;24.00;13.40;;;;;;;8.16;77.99;101229.47;5057581;28;20062;-25
2022/10/05 05:47:12;;;;;;;13.48;8.27;;;;;;;8.22;79.14;101243.88;5086304;28;20788;-27
2022/10/05 05:49:54;;;;;;;8.82;5.13;;;;;;;8.41;79.32;101251.44;5087635;28;20036;-31
2022/10/05 05:52:24;;;;;;;9.07;4.80;;;;;;;8.57;80.32;101233.72;5088323;28;20020;-26
2022/10/05 05:54:58;;;;;;;11.52;5.40;;;;;;;8.96;79.61;101230.94;5087711;28;20416;-29
2022/10/05 05:57:29;;;;;;;8.88;5.60;;;;;;;9.38;77.70;101252.69;5087752;28;20032;-29
2022/10/05 06:00:13;;;;;;;9.80;5.22;;;;;;;9.64;77.11;101263.72;5069101;28;20052;-26
2022/10/05 06:03:13;;;;;;;8.95;5.13;;;;;;;9.93;76.96;101259.41;5087700;28;20032;-29
2022/10/05 06:05:54;;;;;;;9.77;5.47;;;;;;;10.04;76.94;101244.75;5082522;28;20128;-28
2022/10/05 06:08:19;;;;;;;7.80;4.95;;;;;;;10.32;75.61;101276.06;5087667;28;20035;-30
2022/10/05 06:11:02;;;;;;;7.90;5.00;;;;;;;10.68;75.94;101272.56;5087260;28;20028;-27
2022/10/05 06:13:33;;;;;;;7.75;4.32;;;;;;;10.83;74.57;101274.19;5087661;28;20040;-29
2022/10/05 06:16:09;;;;;;;7.80;5.43;;;;;;;10.98;73.51;101283.97;5087508;28;20089;-28
2022/10/05 06:18:38;;;;;;;7.28;4.68;;;;;;;11.11;73.99;101283.25;5086661;28;20031;-27
2022/10/05 06:21:19;;;;;;;6.90;4.53;;;;;;;11.20;73.63;101288.25;5087106;28;20515;-28
2022/10/05 06:23:56;;;;;;;7.00;4.40;;;;;;;11.29;72.25;101293.47;5087388;28;20034;-28
2022/10/05 06:26:31;;;;;;;7.07;4.68;;;;;;;11.45;70.42;101295.84;5087561;28;20107;-26
2022/10/05 06:29:02;;;;;;;9.60;5.95;;;;;;;11.36;72.70;101288.97;5087433;28;20241;-30
2022/10/05 06:31:42;;;;;;;7.32;5.32;;;;;;;11.71;70.28;101294.34;5086924;28;20024;-26
2022/10/05 06:34:26;;;;;;;8.35;5.50;;;;;;;11.94;71.08;101294.94;5086521;28;20106;-28
2022/10/05 06:36:59;;;;;;;7.18;4.97;;;;;;;12.16;69.75;101300.19;5097125;28;20107;-30
2022/10/05 06:39:35;;;;;;;7.75;5.85;;;;;;;12.21;68.94;101303.91;5106993;28;20047;-28
2022/10/05 06:42:22;;;;;;;10.93;5.55;;;;;;;12.37;69.75;101294.72;5085186;28;20449;-28
2022/10/05 06:45:05;;;;;;;8.80;5.88;;;;;;;12.45;68.24;101280.34;5086886;28;20640;-27
2022/10/05 06:48:05;;;;;;;10.05;5.32;;;;;;;12.59;68.04;101302.63;5086354;28;20089;-27
2022/10/05 06:50:55;;;;;;;8.68;5.85;;;;;;;12.82;67.07;101297.72;5077787;28;20042;-30
2022/10/05 06:53:43;;;;;;;9.40;5.25;;;;;;;13.02;67.46;101294.25;5107044;28;20028;-25
2022/10/05 06:56:31;;;;;;;8.68;5.45;;;;;;;13.16;67.33;101303.13;5107061;28;20889;-27
2022/10/05 06:59:09;;;;;;;11.75;5.70;;;;;;;13.19;67.41;101260.66;5088658;28;20567;-28
2022/10/05 07:01:34;;;;;;;11.23;5.45;;;;;;;13.64;66.15;101297.53;5106870;28;20036;-30
2022/10/05 07:04:00;;;;;;;7.30;5.80;;;;;;;13.80;65.69;101290.91;5106705;28;20031;-29
2022/10/05 07:06:28;;;;;;;9.38;5.55;;;;;;;14.10;64.69;101295.75;5072779;28;20028;-29
2022/10/05 07:09:23;;;;;;;;;;;;;;;14.04;64.51;101298.28;5085459;28;20020;-32
2022/10/05 07:12:06;;;;;;;9.00;5.95;;;;;;;14.46;63.68;101295.19;4996390;28;19936;-27
2022/10/05 07:14:44;;;;;;;11.82;5.68;;;;;;;14.26;63.52;101276.50;5086443;28;20036;-28
2022/10/05 07:17:41;;;;;;;10.30;5.80;;;;;;;14.62;62.88;101291.22;5086474;28;20024;-26
2022/10/05 07:20:29;;;;;;;8.02;5.22;;;;;;;14.84;61.83;101294.41;5086754;28;20028;-26
2022/10/05 07:23:07;;;;;;;7.68;4.75;;;;;;;14.94;62.29;101289.38;5086431;28;20036;-28
2022/10/05 07:25:39;;;;;;;10.20;5.57;;;;;;;15.26;60.98;101300.06;5086479;28;20499;-27
2022/10/05 07:28:09;;;;;;;8.30;4.60;;;;;;;15.43;59.33;101295.78;5086501;28;20573;-29
2022/10/05 07:30:47;;;;;;;7.20;4.32;;;;;;;15.40;59.02;101288.16;5072108;28;20035;-32
2022/10/05 07:33:23;;;;;;;10.48;5.45;;;;;;;15.72;57.78;101308.75;5090084;28;20028;-29
2022/10/05 07:39:04;;;;;;;7.45;4.45;;;;;;;15.99;58.15;101285.91;5075332;28;20133;-27
2022/10/05 07:41:43;;;;;;;8.55;4.60;;;;;;;15.84;56.35;101307.81;5090038;28;20107;-27
2022/10/05 07:44:30;;;;;;;9.20;4.28;;;;;;;15.65;56.08;101284.59;5089946;28;20127;-27
2022/10/05 07:47:00;;;;;;;8.60;4.63;;;;;;;15.60;57.35;101287.16;5089803;28;20092;-29
2022/10/05 07:49:45;;;;;;;7.82;4.82;;;;;;;15.87;57.22;101295.78;5071487;28;20056;-34
2022/10/05 07:52:21;;;;;;;6.78;4.35;;;;;;;15.84;56.27;101289.00;5071535;28;20066;-30
2022/10/05 07:55:16;;;;;;;7.13;4.38;;;;;;;15.80;56.67;101309.31;5089454;28;20016;-30
2022/10/05 07:58:11;;;;;;;8.32;5.07;;;;;;;15.88;57.65;101302.81;5071054;28;20028;-27
2022/10/05 08:01:03;;;;;;;7.75;4.63;;;;;;;16.50;54.91;101308.06;5089721;28;20032;-33
2022/10/05 08:03:32;;;;;;;6.45;4.47;;;;;;;16.70;54.75;101305.09;5090123;28;20164;-28
2022/10/05 08:05:59;;;;;;;7.43;4.60;;;;;;;16.73;55.24;101306.50;5089774;28;20064;-27
2022/10/05 08:08:47;;;;;;;6.25;4.13;;;;;;;16.85;54.63;101308.19;5089472;28;20024;-31
2022/10/05 08:11:27;;;;;;;8.02;5.13;;;;;;;16.90;55.00;101312.09;5089659;28;20034;-30
2022/10/05 08:13:55;;;;;;;8.45;4.65;;;;;;;17.13;53.70;101312.16;5089006;28;20031;-28
2022/10/05 08:16:26;;;;;;;8.02;4.35;;;;;;;17.25;52.59;101307.59;5089502;28;20043;-29
2022/10/05 08:19:01;;;;;;;8.50;4.57;;;;;;;17.18;53.20;101300.66;5089468;28;20032;-31
2022/10/05 08:21:35;;;;;;;7.10;4.25;;;;;;;17.30;53.27;101300.69;5070793;28;20032;-29
2022/10/05 08:24:03;;;;;;;6.38;4.07;;;;;;;17.90;52.54;101316.66;5089082;28;20752;-27
2022/10/05 08:26:44;;;;;;;6.47;4.07;;;;;;;17.83;49.89;101311.34;5089539;28;20116;-31
2022/10/05 08:29:21;;;;;;;6.93;3.40;;;;;;;18.03;48.69;101321.78;5071064;28;20131;-26
2022/10/05 08:31:52;;;;;;;5.95;3.67;;;;;;;18.19;49.58;101297.81;5088915;28;20032;-28
2022/10/05 08:34:48;;;;;;;5.60;3.75;;;;;;;18.57;49.07;101316.09;5089084;28;20035;-28
2022/10/05 08:37:20;;;;;;;5.57;3.07;;;;;;;18.67;47.50;101315.44;5088826;28;20095;-27
2022/10/05 08:39:55;;;;;;;7.25;3.65;;;;;;;18.75;46.62;101293.44;5088782;28;20032;-29
2022/10/05 08:42:39;;;;;;;5.88;3.75;;;;;;;18.89;46.85;101315.63;5088639;28;20035;-30
2022/10/05 08:45:13;;;;;;;4.50;2.85;;;;;;;19.03;45.50;101311.53;5088607;28;20035;-28
2022/10/05 08:47:58;;;;;;;6.97;3.13;;;;;;;18.70;45.41;101314.97;5088278;28;20036;-28
2022/10/05 08:50:30;;;;;;;6.07;3.10;;;;;;;18.96;45.00;101288.41;5088736;28;20063;-32
2022/10/05 08:53:13;;;;;;;5.78;3.08;;;;;;;19.12;44.25;101286.78;5070316;28;20028;-27
2022/10/05 08:55:45;;;;;;;6.35;3.17;;;;;;;19.35;43.93;101296.59;5088366;28;20056;-28
2022/10/05 08:58:19;;;;;;;5.55;2.60;;;;;;;19.57;42.63;101286.66;5089088;28;20081;-28
2022/10/05 09:01:04;;;;;;;4.88;2.72;;;;;;;19.54;41.41;101287.16;5070230;28;20423;-28
2022/10/05 09:03:36;;;;;;;4.90;2.33;;;;;;;19.57;43.25;101286.66;5088327;28;20166;-27
2022/10/05 09:06:26;;;;;;;3.25;2.10;;;;;;;19.40;40.57;101280.47;5088880;28;20047;-28
2022/10/05 09:09:06;;;;;;;4.10;2.30;;;;;;;19.41;41.93;101268.56;5088549;28;20032;-28
2022/10/05 09:11:36;;;;;;;3.88;2.50;;;;;;;19.70;41.58;101290.91;5088221;28;20039;-27
2022/10/05 09:14:44;;;;;;;4.18;2.30;;;;;;;19.92;39.92;101285.56;5087928;28;20020;-32
2022/10/05 09:17:23;;;;;;;4.97;2.38;;;;;;;19.80;39.64;101279.44;5076013;28;20067;-28
2022/10/05 09:20:08;;;;;;;5.80;2.20;;;;;;;19.68;39.24;101277.63;5069743;28;20055;-28
2022/10/05 09:23:01;;;;;;;5.30;2.15;;;;;;;19.67;38.92;101284.09;5069864;28;20035;-26
2022/10/05 09:25:42;;;;;;;7.45;3.03;;;;;;;19.97;38.72;101274.78;5088269;28;20028;-28
2022/10/05 09:28:23;;;;;;;3.80;1.92;;;;;;;20.17;38.11;101284.22;5087954;28;20770;-31
2022/10/05 09:31:07;;;;;;;6.43;2.30;;;;;;;20.61;38.10;101290.38;5088162;28;20031;-28
2022/10/05 09:33:41;;;;;;;2.60;1.95;;;;;;;20.83;37.67;101286.81;5087782;28;20143;-29
2022/10/05 09:36:34;;;;;;;2.97;1.73;;;;;;;20.40;36.54;101288.53;5069138;28;20491;-27
2022/10/05 09:39:11;;;;;;;3.78;1.48;;;;;;;20.15;37.67;101286.38;5087871;28;20035;-28
2022/10/05 09:41:59;;;;;;;3.72;1.80;;;;;;;20.24;36.96;101280.22;5087899;28;20036;-30
2022/10/05 09:45:18;;;;;;;3.40;1.60;;;;;;;20.69;36.72;101289.13;5069589;28;20071;-26
2022/10/05 09:48:16;;;;;;;2.45;1.77;;;;;;;20.52;37.01;101274.84;5005077;28;20123;-28
2022/10/05 09:51:00;;;;;;;9.25;4.32;;;;;;;20.89;37.05;101274.13;4968785;28;20041;-28
2022/10/05 09:53:45;;;;;;;4.03;2.22;;;;;;;21.28;35.66;101283.63;5069936;28;20048;-28
2022/10/05 09:56:45;;;;;;;4.40;1.77;;;;;;;21.71;34.08;101291.00;5087387;28;20028;-27
2022/10/05 09:59:24;;;;;;;2.22;1.70;;;;;;;21.42;35.72;101283.19;5087306;28;20039;-30
2022/10/05 10:01:50;;;;;;;2.63;1.50;;;;;;;21.15;35.11;101286.00;5087095;28;20023;-30
2022/10/05 10:04:29;;;;;;;3.17;1.98;;;;;;;21.62;34.95;101287.97;5087232;28;20032;-30
2022/10/05 10:07:03;;;;;;;4.95;1.75;;;;;;;21.34;35.29;101286.41;5069441;28;20460;-28
2022/10/05 10:09:47;;;;;;;2.92;1.60;;;;;;;21.67;35.23;101285.25;5068822;28;20040;-30
2022/10/05 10:12:52;;;;;;;2.40;1.35;;;;;;;21.62;33.13;101283.34;5086953;28;20036;-27
2022/10/05 10:15:56;;;;;;;2.00;1.17;;;;;;;21.75;33.79;101281.25;5067452;28;20060;-30
2022/10/05 10:18:21;;;;;;;2.47;1.58;;;;;;;22.18;33.34;101280.03;5087174;28;20046;-29
2022/10/05 10:20:56;;;;;;;2.97;1.50;;;;;;;22.17;32.94;101278.44;5086851;28;20032;-30
2022/10/05 10:23:48;;;;;;;1.90;1.42;;;;;;;22.24;32.66;101261.91;5087219;28;20024;-29
2022/10/05 10:26:57;;;;;;;2.13;1.33;;;;;;;22.24;31.91;101259.19;5068655;28;20755;-28
2022/10/05 10:29:59;;;;;;;4.20;1.77;;;;;;;22.01;32.57;101263.97;5086885;28;20487;-29
2022/10/05 10:32:57;;;;;;;3.25;1.40;;;;;;;22.07;32.88;101260.19;5087027;28;20084;-29
2022/10/05 10:35:25;;;;;;;;;;;;;;;22.41;33.47;101257.06;5041727;28;20042;-28
2022/10/05 10:38:12;;;;;;;1.48;1.38;;;;;;;22.57;33.30;101263.31;5085001;28;19924;-28
2022/10/05 10:41:02;;;;;;;3.05;1.25;;;;;;;22.78;31.42;101263.31;5086740;28;20028;-27
2022/10/05 10:43:49;;;;;;;2.65;1.60;;;;;;;23.03;32.53;101257.13;5086474;28;20111;-26
2022/10/05 10:46:33;;;;;;;4.60;1.30;;;;;;;23.11;31.45;101259.28;5068434;28;20032;-33
2022/10/05 10:49:31;;;;;;;2.20;1.20;;;;;;;22.72;31.83;101240.78;5086843;28;20495;-28
2022/10/05 10:52:11;;;;;;;2.58;1.50;;;;;;;22.97;32.53;101250.00;5057975;28;20044;-28
2022/10/05 10:55:04;;;;;;;2.95;1.35;;;;;;;23.05;31.61;101254.94;5086758;28;20514;-29
2022/10/05 10:57:36;;;;;;;2.65;1.48;;;;;;;23.22;31.30;101250.00;5086675;28;20038;-31
2022/10/05 11:00:22;;;;;;;1.98;1.40;;;;;;;23.51;30.71;101256.75;5086538;28;20027;-28
2022/10/05 11:03:21;;;;;;;2.03;1.40;;;;;;;23.64;30.15;101253.44;5086640;28;20611;-27
2022/10/05 11:06:24;;;;;;;2.35;1.30;;;;;;;23.77;29.61;101255.59;5091107;28;20056;-28
2022/10/05 11:09:18;;;;;;;2.40;1.38;;;;;;;23.75;30.50;101243.31;5072211;28;20039;-31
2022/10/05 11:11:57;;;;;;;2.30;1.27;;;;;;;23.77;29.51;101246.63;5090709;28;20423;-28
2022/10/05 11:14:28;;;;;;;2.15;1.50;;;;;;;23.39;29.96;101240.72;5072382;28;20564;-27
2022/10/05 11:17:14;;;;;;;1.80;1.33;;;;;;;23.97;29.27;101243.00;5090254;28;20493;-28
2022/10/05 11:19:54;;;;;;;2.17;1.30;;;;;;;24.31;28.83;101240.31;5090557;28;20119;-28
2022/10/05 11:22:39;;;;;;;1.23;1.10;;;;;;;24.18;29.27;101230.88;5055434;28;20043;-28
2022/10/05 11:25:48;;;;;;;3.55;1.27;;;;;;;24.49;29.60;101232.59;5071928;28;20028;-28
2022/10/05 11:28:17;;;;;;;1.85;1.20;;;;;;;24.23;29.23;101225.41;5090302;28;20518;-34
2022/10/05 11:30:54;;;;;;;1.83;1.30;;;;;;;24.29;29.03;101228.88;5090154;28;20471;-30
2022/10/05 11:33:38;;;;;;;2.30;1.40;;;;;;;24.54;27.68;101224.38;5090498;28;20031;-28
2022/10/05 11:36:24;;;;;;;2.15;1.20;;;;;;;24.37;28.00;101225.56;5071651;28;20056;-29
2022/10/05 11:39:14;;;;;;;1.48;1.20;;;;;;;24.72;27.67;101229.13;5071888;28;20020;-27
2022/10/05 11:41:45;;;;;;;2.05;1.25;;;;;;;25.13;27.83;101226.06;5071667;28;20036;-28
2022/10/05 11:44:14;;;;;;;3.13;1.35;;;;;;;25.02;27.31;101219.88;5089903;28;20601;-29
2022/10/05 11:46:46;;;;;;;5.15;1.70;;;;;;;25.01;26.91;101217.44;5090335;28;20498;-27
2022/10/05 11:49:21;;;;;;;5.78;2.72;;;;;;;25.57;28.66;101216.84;5071830;28;20425;-31
2022/10/05 11:52:11;;;;;;;3.92;1.70;;;;;;;25.11;27.21;101217.34;5089792;28;20447;-32
2022/10/05 11:55:09;;;;;;;1.85;1.20;;;;;;;25.42;28.03;101212.38;5089018;28;20464;-31
2022/10/05 11:57:58;;;;;;;2.53;1.30;;;;;;;25.29;27.21;101215.00;5083576;28;20040;-28
2022/10/05 12:00:23;;;;;;;3.28;1.15;;;;;;;25.51;26.81;101204.34;5071376;28;20484;-28
2022/10/05 12:02:48;;;;;;;3.15;1.63;;;;;;;25.62;26.73;101194.94;5071242;28;20492;-28
2022/10/05 12:06:01;;;;;;;2.60;1.30;;;;;;;25.92;27.00;101175.72;5089780;28;20368;-28
2022/10/05 12:09:03;;;;;;;2.00;1.10;;;;;;;25.71;26.03;101178.69;5006800;28;20669;-29
2022/10/05 12:11:53;;;;;;;5.30;3.47;;;;;;;26.25;25.70;101179.31;5071404;28;20039;-29
2022/10/05 12:14:47;;;;;;;1.67;1.25;;;;;;;25.71;26.27;101186.91;5071145;28;20036;-31
2022/10/05 12:17:19;;;;;;;2.63;1.20;;;;;;;25.06;26.59;101190.91;5088668;28;20028;-30
2022/10/05 12:19:54;;;;;;;1.67;1.50;;;;;;;25.38;26.57;101164.13;5070886;28;20465;-28
2022/10/05 12:22:48;;;;;;;1.27;1.00;;;;;;;26.13;25.94;101171.56;5089550;28;20035;-28
2022/10/05 12:25:35;;;;;;;1.50;1.20;;;;;;;26.42;25.26;101165.91;5089551;28;20059;-28
2022/10/05 12:28:10;;;;;;;3.75;1.17;;;;;;;24.80;27.06;101171.22;5070868;28;20036;-28
2022/10/05 12:30:57;;;;;;;2.53;1.20;;;;;;;25.32;28.27;101177.00;5071044;28;20035;-28
2022/10/05 12:33:37;;;;;;;1.35;1.08;;;;;;;25.60;26.62;101164.38;5089211;28;20028;-31
2022/10/05 12:36:26;;;;;;;2.85;1.20;;;;;;;25.38;26.77;101172.31;5088603;28;20130;-27
2022/10/05 12:39:06;;;;;;;1.58;1.20;;;;;;;25.51;26.40;101166.13;5047112;28;20043;-28